Time;durP1;ratioP1;P1;durP2;ratioP2;P2;SDS_P1;SDS_P2;PMS_P1;PMS_P2;Temp;Humidity;BMP_temperature;BMP_pressure;BME280_temperature;BME280_humidity;BME280_pressure;Samples;Min_cycle;Max_cycle;Signal;HPM_P1;HPM_P2
2022/06/19 00:00:09;;;;;;;13.30;3.50;;;;;;;;;;525128;28;1174;-82
2022/06/19 00:00:25;;;;;;;14.60;3.70;;;;;;;;;;526276;28;1108;-82
2022/06/19 00:00:41;;;;;;;13.07;3.67;;;;;;;;;;526547;28;824;-82
2022/06/19 00:00:57;;;;;;;14.68;3.60;;;;;;;;;;526285;28;1265;-82
2022/06/19 00:01:12;;;;;;;17.13;3.73;;;;;;;;;;526952;28;1264;-82
2022/06/19 00:01:29;;;;;;;15.63;3.78;;;;;;;;;;527996;28;1215;-82
2022/06/19 00:01:44;;;;;;;13.40;3.70;;;;;;;;;;525741;28;1263;-82
2022/06/19 00:02:00;;;;;;;13.77;3.70;;;;;;;;;;525493;28;1230;-82
2022/06/19 00:02:18;;;;;;;14.77;3.67;;;;;;;;;;525540;28;1306;-82
2022/06/19 00:02:33;;;;;;;14.18;3.70;;;;;;;;;;525800;28;907;-82
2022/06/19 00:02:49;;;;;;;13.68;3.70;;;;;;;;;;525621;28;963;-82
2022/06/19 00:03:09;;;;;;;12.67;3.53;;;;;;;;;;524921;28;1432;-82
2022/06/19 00:03:33;;;;;;;14.18;3.55;;;;;;;;;;524174;28;1314;-82
2022/06/19 00:03:54;;;;;;;14.27;3.83;;;;;;;;;;525580;28;1357;-82
2022/06/19 00:04:09;;;;;;;12.15;3.70;;;;;;;;;;523608;28;1424;-82
2022/06/19 00:04:25;;;;;;;11.63;3.50;;;;;;;;;;523596;28;888;-82
2022/06/19 00:04:40;;;;;;;12.70;3.60;;;;;;;;;;523601;28;1432;-82
2022/06/19 00:04:57;;;;;;;13.07;3.53;;;;;;;;;;523725;28;1260;-82
2022/06/19 00:05:14;;;;;;;14.15;3.60;;;;;;;;;;521533;28;1330;-82
2022/06/19 00:05:30;;;;;;;15.35;3.65;;;;;;;;;;521987;28;1497;-82
2022/06/19 00:05:46;;;;;;;13.55;3.70;;;;;;;;;;521366;28;1463;-82
2022/06/19 00:06:02;;;;;;;13.53;3.70;;;;;;;;;;519792;28;1158;-82
2022/06/19 00:06:18;;;;;;;14.07;3.80;;;;;;;;;;517680;28;1291;-82
2022/06/19 00:06:35;;;;;;;12.50;3.67;;;;;;;;;;518514;28;1371;-82
2022/06/19 00:06:51;;;;;;;13.57;3.53;;;;;;;;;;517825;28;1439;-82
2022/06/19 00:07:06;;;;;;;16.73;3.70;;;;;;;;;;521643;28;1346;-82
2022/06/19 00:07:23;;;;;;;12.93;3.50;;;;;;;;;;521958;28;1187;-82
2022/06/19 00:07:38;;;;;;;11.95;3.33;;;;;;;;;;521724;28;1322;-82
2022/06/19 00:07:55;;;;;;;11.87;3.50;;;;;;;;;;521689;28;1232;-82
2022/06/19 00:08:10;;;;;;;13.07;3.72;;;;;;;;;;522263;28;844;-82
2022/06/19 00:08:28;;;;;;;13.38;3.55;;;;;;;;;;522956;28;971;-82
2022/06/19 00:08:45;;;;;;;12.50;3.50;;;;;;;;;;522902;28;1539;-82
2022/06/19 00:09:03;;;;;;;11.57;3.60;;;;;;;;;;522795;28;1247;-82
2022/06/19 00:09:18;;;;;;;10.85;3.65;;;;;;;;;;519928;28;1402;-82
2022/06/19 00:09:34;;;;;;;13.03;3.57;;;;;;;;;;521275;28;860;-82
2022/06/19 00:09:49;;;;;;;15.77;3.70;;;;;;;;;;521162;28;1219;-82
2022/06/19 00:10:06;;;;;;;15.53;3.83;;;;;;;;;;520182;28;1286;-82
2022/06/19 00:10:22;;;;;;;13.82;3.60;;;;;;;;;;519976;28;1433;-82
2022/06/19 00:10:37;;;;;;;13.35;3.50;;;;;;;;;;519938;28;1164;-82
2022/06/19 00:10:53;;;;;;;14.97;3.70;;;;;;;;;;521303;28;1179;-82
2022/06/19 00:11:14;;;;;;;12.98;3.50;;;;;;;;;;520799;28;1215;-82
2022/06/19 00:11:29;;;;;;;11.45;3.60;;;;;;;;;;520008;28;895;-82
2022/06/19 00:11:45;;;;;;;13.10;3.67;;;;;;;;;;521462;28;883;-82
2022/06/19 00:12:01;;;;;;;12.68;3.40;;;;;;;;;;522083;28;1247;-82
2022/06/19 00:12:18;;;;;;;10.75;3.22;;;;;;;;;;522066;28;1196;-82
2022/06/19 00:12:33;;;;;;;11.63;3.53;;;;;;;;;;521975;28;1164;-82
2022/06/19 00:12:49;;;;;;;12.80;3.85;;;;;;;;;;521308;28;1203;-82
2022/06/19 00:13:04;;;;;;;12.67;3.80;;;;;;;;;;522021;28;1254;-82
2022/06/19 00:13:20;;;;;;;13.43;3.45;;;;;;;;;;523057;28;1124;-82
2022/06/19 00:13:35;;;;;;;12.90;3.60;;;;;;;;;;522081;28;1272;-82
2022/06/19 00:13:51;;;;;;;12.73;3.70;;;;;;;;;;519988;28;1192;-82
2022/06/19 00:14:07;;;;;;;12.97;3.70;;;;;;;;;;520559;28;808;-82
2022/06/19 00:14:24;;;;;;;12.40;3.70;;;;;;;;;;520125;28;951;-82
2022/06/19 00:14:39;;;;;;;14.82;3.78;;;;;;;;;;520653;28;1433;-82
2022/06/19 00:14:55;;;;;;;15.43;3.87;;;;;;;;;;523097;28;1251;-82
2022/06/19 00:15:10;;;;;;;14.30;3.73;;;;;;;;;;522073;28;1259;-82
2022/06/19 00:15:26;;;;;;;13.50;3.70;;;;;;;;;;522146;28;1290;-82
2022/06/19 00:15:41;;;;;;;13.40;3.70;;;;;;;;;;522602;28;1488;-82
2022/06/19 00:15:58;;;;;;;11.77;3.50;;;;;;;;;;525716;28;844;-82
2022/06/19 00:16:14;;;;;;;11.77;3.58;;;;;;;;;;526434;28;824;-82
2022/06/19 00:16:29;;;;;;;13.02;3.85;;;;;;;;;;524742;28;1488;-82
2022/06/19 00:16:45;;;;;;;12.50;3.78;;;;;;;;;;526768;28;1367;-82
2022/06/19 00:17:04;;;;;;;15.47;3.83;;;;;;;;;;525584;28;1435;-82
2022/06/19 00:17:20;;;;;;;15.02;3.75;;;;;;;;;;524134;28;1095;-82
2022/06/19 00:17:35;;;;;;;12.67;3.80;;;;;;;;;;524266;28;852;-82
2022/06/19 00:17:51;;;;;;;12.75;3.78;;;;;;;;;;522124;28;1319;-82
2022/06/19 00:18:07;;;;;;;14.77;3.80;;;;;;;;;;522574;28;1145;-82
2022/06/19 00:18:22;;;;;;;15.63;4.00;;;;;;;;;;519957;28;1232;-82
2022/06/19 00:18:38;;;;;;;13.15;3.80;;;;;;;;;;519934;28;1425;-82
2022/06/19 00:18:54;;;;;;;11.27;3.60;;;;;;;;;;521187;28;919;-82
2022/06/19 00:19:09;;;;;;;11.30;3.40;;;;;;;;;;520357;28;1297;-82
2022/06/19 00:19:25;;;;;;;11.60;3.35;;;;;;;;;;522189;28;954;-82
2022/06/19 00:19:40;;;;;;;13.80;3.63;;;;;;;;;;522660;28;990;-82
2022/06/19 00:19:55;;;;;;;17.77;3.87;;;;;;;;;;522509;28;1348;-82
2022/06/19 00:20:12;;;;;;;19.63;3.90;;;;;;;;;;524221;28;990;-82
2022/06/19 00:20:27;;;;;;;16.45;3.90;;;;;;;;;;523859;28;1335;-82
2022/06/19 00:20:42;;;;;;;13.07;3.83;;;;;;;;;;524247;28;1132;-82
2022/06/19 00:20:58;;;;;;;14.48;3.90;;;;;;;;;;524560;28;939;-82
2022/06/19 00:21:16;;;;;;;18.20;4.00;;;;;;;;;;524314;28;1143;-82
2022/06/19 00:21:31;;;;;;;20.70;4.30;;;;;;;;;;524165;28;900;-82
2022/06/19 00:21:47;;;;;;;14.40;4.22;;;;;;;;;;525587;28;1187;-82
2022/06/19 00:22:03;;;;;;;12.00;4.23;;;;;;;;;;524774;28;1371;-82
2022/06/19 00:22:19;;;;;;;14.68;4.70;;;;;;;;;;525032;28;1030;-82
2022/06/19 00:22:34;;;;;;;16.23;4.68;;;;;;;;;;527238;28;1542;-82
2022/06/19 00:22:50;;;;;;;16.67;4.40;;;;;;;;;;526411;28;1176;-82
2022/06/19 00:23:05;;;;;;;17.65;4.45;;;;;;;;;;525576;28;1087;-82
2022/06/19 00:23:20;;;;;;;15.77;4.40;;;;;;;;;;522244;28;1201;-82
2022/06/19 00:23:36;;;;;;;13.98;4.20;;;;;;;;;;525439;28;1155;-82
2022/06/19 00:23:52;;;;;;;14.37;4.33;;;;;;;;;;526328;28;930;-82
2022/06/19 00:24:07;;;;;;;16.27;4.60;;;;;;;;;;524389;28;1226;-82
2022/06/19 00:24:23;;;;;;;16.47;4.33;;;;;;;;;;524354;28;1918;-82
2022/06/19 00:24:38;;;;;;;13.38;4.22;;;;;;;;;;524472;28;828;-82
2022/06/19 00:24:54;;;;;;;12.63;4.30;;;;;;;;;;525582;28;816;-82
2022/06/19 00:25:09;;;;;;;14.23;4.18;;;;;;;;;;524283;28;1177;-82
2022/06/19 00:25:25;;;;;;;16.00;4.23;;;;;;;;;;524376;28;813;-82
2022/06/19 00:25:40;;;;;;;16.20;4.47;;;;;;;;;;525474;28;919;-82
2022/06/19 00:25:56;;;;;;;13.70;4.37;;;;;;;;;;524643;28;902;-82
2022/06/19 00:26:13;;;;;;;11.88;4.13;;;;;;;;;;526752;28;804;-82
2022/06/19 00:26:28;;;;;;;12.43;4.20;;;;;;;;;;526204;28;907;-82
2022/06/19 00:26:44;;;;;;;13.23;4.27;;;;;;;;;;527656;28;1543;-82
2022/06/19 00:26:59;;;;;;;12.63;4.07;;;;;;;;;;526745;28;1165;-82
2022/06/19 00:27:15;;;;;;;11.23;4.07;;;;;;;;;;528290;28;1210;-82
2022/06/19 00:27:31;;;;;;;11.43;4.13;;;;;;;;;;528357;28;803;-82
2022/06/19 00:27:46;;;;;;;12.10;3.95;;;;;;;;;;528089;28;1894;-82
2022/06/19 00:28:04;;;;;;;11.00;3.83;;;;;;;;;;527537;28;1312;-82
2022/06/19 00:28:19;;;;;;;13.20;4.25;;;;;;;;;;527348;28;1350;-82
2022/06/19 00:28:35;;;;;;;13.97;4.50;;;;;;;;;;524006;28;1158;-82
2022/06/19 00:28:50;;;;;;;14.05;4.32;;;;;;;;;;523845;28;1519;-82
2022/06/19 00:29:06;;;;;;;13.20;4.17;;;;;;;;;;522551;28;1349;-82
2022/06/19 00:29:21;;;;;;;12.53;4.00;;;;;;;;;;521831;28;1345;-82
2022/06/19 00:29:37;;;;;;;13.77;3.90;;;;;;;;;;519601;28;1270;-82
2022/06/19 00:29:52;;;;;;;14.40;4.07;;;;;;;;;;518040;28;1240;-82
2022/06/19 00:30:11;;;;;;;12.85;4.03;;;;;;;;;;519855;28;1270;-82
2022/06/19 00:30:26;;;;;;;12.52;4.30;;;;;;;;;;522042;28;1315;-82
2022/06/19 00:30:41;;;;;;;13.70;4.18;;;;;;;;;;522281;28;1369;-82
2022/06/19 00:30:57;;;;;;;15.27;4.20;;;;;;;;;;521973;28;868;-82
2022/06/19 00:31:13;;;;;;;16.75;4.35;;;;;;;;;;520894;28;817;-82
2022/06/19 00:31:29;;;;;;;17.00;4.50;;;;;;;;;;520328;28;1364;-82
2022/06/19 00:31:44;;;;;;;15.53;4.37;;;;;;;;;;521065;28;1232;-82
2022/06/19 00:32:04;;;;;;;14.13;4.20;;;;;;;;;;523207;28;940;-82
2022/06/19 00:32:20;;;;;;;11.88;4.10;;;;;;;;;;525414;28;860;-82
2022/06/19 00:32:36;;;;;;;14.60;4.10;;;;;;;;;;525399;28;1488;-82
2022/06/19 00:32:52;;;;;;;15.50;4.30;;;;;;;;;;524414;28;1163;-82
2022/06/19 00:33:07;;;;;;;19.00;4.65;;;;;;;;;;524335;28;998;-82
2022/06/19 00:33:23;;;;;;;19.35;4.70;;;;;;;;;;524154;28;1238;-82
2022/06/19 00:33:38;;;;;;;15.00;4.47;;;;;;;;;;524004;28;1461;-82
2022/06/19 00:33:54;;;;;;;13.88;4.47;;;;;;;;;;524219;28;879;-82
2022/06/19 00:34:10;;;;;;;15.90;4.40;;;;;;;;;;521933;28;1351;-82
2022/06/19 00:34:25;;;;;;;17.07;4.37;;;;;;;;;;522389;28;1276;-82
2022/06/19 00:34:41;;;;;;;14.02;4.05;;;;;;;;;;524125;28;927;-82
2022/06/19 00:34:56;;;;;;;11.40;3.90;;;;;;;;;;522145;28;1215;-82
2022/06/19 00:35:12;;;;;;;14.45;4.30;;;;;;;;;;522141;28;773;-82
2022/06/19 00:35:29;;;;;;;15.15;4.40;;;;;;;;;;522567;28;1337;-82
2022/06/19 00:35:44;;;;;;;13.95;4.45;;;;;;;;;;522112;28;1365;-82
2022/06/19 00:36:00;;;;;;;13.53;4.40;;;;;;;;;;522795;28;876;-82
2022/06/19 00:36:15;;;;;;;12.48;4.40;;;;;;;;;;524664;28;1413;-82
2022/06/19 00:36:30;;;;;;;13.90;4.30;;;;;;;;;;526126;28;1375;-82
2022/06/19 00:36:49;;;;;;;16.63;4.28;;;;;;;;;;526306;28;947;-82
2022/06/19 00:37:05;;;;;;;15.20;4.32;;;;;;;;;;526266;28;910;-82
2022/06/19 00:37:21;;;;;;;12.73;4.13;;;;;;;;;;527239;28;824;-82
2022/06/19 00:37:36;;;;;;;11.80;4.10;;;;;;;;;;529454;27;831;-82
2022/06/19 00:37:52;;;;;;;11.88;4.25;;;;;;;;;;530698;27;938;-82
2022/06/19 00:38:08;;;;;;;12.15;4.28;;;;;;;;;;529668;27;915;-82
2022/06/19 00:38:23;;;;;;;16.27;4.50;;;;;;;;;;528323;28;1159;-82
2022/06/19 00:38:39;;;;;;;17.10;4.35;;;;;;;;;;528402;28;1530;-82
2022/06/19 00:38:56;;;;;;;14.00;4.30;;;;;;;;;;528552;28;1023;-82
2022/06/19 00:39:11;;;;;;;13.27;4.47;;;;;;;;;;526442;28;1521;-82
2022/06/19 00:39:28;;;;;;;12.90;4.27;;;;;;;;;;524284;28;1139;-82
2022/06/19 00:39:43;;;;;;;14.80;4.30;;;;;;;;;;524356;28;910;-82
2022/06/19 00:39:59;;;;;;;13.87;4.20;;;;;;;;;;524043;28;1290;-82
2022/06/19 00:40:14;;;;;;;13.38;4.07;;;;;;;;;;524880;28;863;-82
2022/06/19 00:40:31;;;;;;;15.57;4.30;;;;;;;;;;524031;28;1286;-82
2022/06/19 00:40:46;;;;;;;15.65;4.50;;;;;;;;;;522051;28;1220;-82
2022/06/19 00:41:02;;;;;;;14.43;4.40;;;;;;;;;;522902;28;804;-82
2022/06/19 00:41:18;;;;;;;12.90;4.10;;;;;;;;;;524952;28;919;-82
2022/06/19 00:41:39;;;;;;;11.77;4.10;;;;;;;;;;524298;28;1285;-82
2022/06/19 00:41:55;;;;;;;12.90;3.85;;;;;;;;;;522091;28;1390;-82
2022/06/19 00:42:13;;;;;;;12.50;3.72;;;;;;;;;;522222;28;1345;-82
2022/06/19 00:42:29;;;;;;;13.02;4.00;;;;;;;;;;524178;28;1066;-82
2022/06/19 00:42:44;;;;;;;12.70;4.07;;;;;;;;;;522060;28;1275;-82
2022/06/19 00:43:00;;;;;;;13.30;3.90;;;;;;;;;;520090;28;1153;-82
2022/06/19 00:43:15;;;;;;;13.00;3.95;;;;;;;;;;520013;28;1522;-82
2022/06/19 00:43:31;;;;;;;13.93;4.17;;;;;;;;;;522175;28;1291;-82
2022/06/19 00:44:01;;;;;;;14.80;4.10;;;;;;;;;;524011;28;987;-82
2022/06/19 00:44:17;;;;;;;11.48;3.72;;;;;;;;;;525997;28;1909;-82
2022/06/19 00:44:32;;;;;;;11.77;3.70;;;;;;;;;;526570;28;879;-82
2022/06/19 00:44:47;;;;;;;13.03;3.90;;;;;;;;;;528710;28;1056;-82
2022/06/19 00:45:04;;;;;;;14.87;4.20;;;;;;;;;;526885;28;1545;-82
2022/06/19 00:45:51;;;;;;;14.80;4.28;;;;;;;;;;524280;28;1360;-82
2022/06/19 00:46:45;;;;;;;15.63;4.22;;;;;;;;;;524084;28;867;-82
2022/06/19 00:47:00;;;;;;;16.70;4.30;;;;;;;;;;525048;28;1258;-82
2022/06/19 00:47:24;;;;;;;13.50;3.97;;;;;;;;;;529752;27;899;-82
2022/06/19 00:47:40;;;;;;;10.63;3.88;;;;;;;;;;528363;28;1263;-82
2022/06/19 00:47:55;;;;;;;13.70;4.35;;;;;;;;;;526243;28;1293;-82
2022/06/19 00:48:15;;;;;;;15.13;4.60;;;;;;;;;;524451;28;868;-82
2022/06/19 00:48:37;;;;;;;16.45;4.28;;;;;;;;;;522237;28;1237;-82
2022/06/19 00:48:52;;;;;;;13.77;3.80;;;;;;;;;;523040;28;868;-82
2022/06/19 00:49:21;;;;;;;13.30;4.10;;;;;;;;;;522058;28;1155;-82
2022/06/19 00:49:47;;;;;;;13.27;3.83;;;;;;;;;;523526;28;1390;-82
2022/06/19 00:50:18;;;;;;;12.60;3.63;;;;;;;;;;522056;28;1475;-82
2022/06/19 00:50:35;;;;;;;15.80;4.05;;;;;;;;;;522060;28;935;-82
2022/06/19 00:50:53;;;;;;;14.45;3.92;;;;;;;;;;522020;28;808;-82
2022/06/19 00:51:10;;;;;;;13.75;3.90;;;;;;;;;;523935;28;1254;-82
2022/06/19 00:51:25;;;;;;;11.57;3.80;;;;;;;;;;522139;28;1516;-82
2022/06/19 00:51:41;;;;;;;10.07;3.90;;;;;;;;;;524191;28;1285;-82
2022/06/19 00:52:09;;;;;;;11.70;4.15;;;;;;;;;;526864;28;1250;-82
2022/06/19 00:52:39;;;;;;;14.18;4.50;;;;;;;;;;525763;28;1252;-82
2022/06/19 00:52:55;;;;;;;13.02;4.07;;;;;;;;;;522019;28;1401;-82
2022/06/19 00:53:27;;;;;;;11.85;3.92;;;;;;;;;;522079;28;1318;-82
2022/06/19 00:53:47;;;;;;;12.77;4.15;;;;;;;;;;520266;28;958;-82
2022/06/19 00:54:03;;;;;;;11.80;4.10;;;;;;;;;;521699;28;1211;-82
2022/06/19 00:54:21;;;;;;;13.10;4.07;;;;;;;;;;524038;28;1388;-82
2022/06/19 00:54:47;;;;;;;16.50;4.10;;;;;;;;;;525010;28;1448;-82
2022/06/19 00:55:06;;;;;;;14.75;4.10;;;;;;;;;;526132;28;1339;-82
2022/06/19 00:55:29;;;;;;;14.23;4.25;;;;;;;;;;523695;28;1542;-82
2022/06/19 00:55:47;;;;;;;13.32;4.20;;;;;;;;;;523835;28;1591;-82
2022/06/19 00:56:04;;;;;;;16.98;4.50;;;;;;;;;;524056;28;883;-82
2022/06/19 00:56:20;;;;;;;15.43;4.20;;;;;;;;;;526066;28;1337;-82
2022/06/19 00:56:36;;;;;;;13.85;4.10;;;;;;;;;;523924;28;1286;-82
2022/06/19 00:56:52;;;;;;;17.37;4.33;;;;;;;;;;524587;28;1285;-82
2022/06/19 00:57:08;;;;;;;16.75;4.35;;;;;;;;;;524264;28;1359;-82
2022/06/19 00:57:27;;;;;;;13.27;4.20;;;;;;;;;;526085;28;1356;-82
2022/06/19 00:57:47;;;;;;;15.85;4.05;;;;;;;;;;524175;28;880;-82
2022/06/19 00:58:12;;;;;;;18.63;4.40;;;;;;;;;;521968;28;1314;-82
2022/06/19 00:58:33;;;;;;;14.03;4.30;;;;;;;;;;519841;28;1254;-82
2022/06/19 00:58:51;;;;;;;13.32;4.03;;;;;;;;;;520048;28;1211;-82
2022/06/19 00:59:08;;;;;;;14.13;4.20;;;;;;;;;;519720;28;1229;-82
2022/06/19 00:59:23;;;;;;;14.98;4.40;;;;;;;;;;520686;28;1364;-82
2022/06/19 00:59:42;;;;;;;13.20;4.10;;;;;;;;;;522167;28;1415;-82
2022/06/19 01:00:09;;;;;;;14.30;4.10;;;;;;;;;;522280;28;955;-82
2022/06/19 01:00:27;;;;;;;13.05;4.10;;;;;;;;;;525732;28;1348;-82
2022/06/19 01:00:47;;;;;;;18.23;4.38;;;;;;;;;;524158;28;1539;-82
2022/06/19 01:01:07;;;;;;;16.60;4.65;;;;;;;;;;523020;28;1723;-82
2022/06/19 01:01:25;;;;;;;15.55;4.20;;;;;;;;;;524170;28;1113;-82
2022/06/19 01:01:42;;;;;;;14.15;4.15;;;;;;;;;;523930;28;1329;-82
2022/06/19 01:01:58;;;;;;;15.27;4.20;;;;;;;;;;521839;28;1255;-82
2022/06/19 01:02:14;;;;;;;13.63;4.25;;;;;;;;;;521852;28;1246;-82
2022/06/19 01:02:30;;;;;;;15.23;4.43;;;;;;;;;;522313;28;1447;-82
2022/06/19 01:02:47;;;;;;;13.45;4.15;;;;;;;;;;524273;28;1387;-82
2022/06/19 01:03:10;;;;;;;13.40;4.00;;;;;;;;;;525987;28;828;-82
2022/06/19 01:03:29;;;;;;;14.10;4.05;;;;;;;;;;526268;28;896;-82
2022/06/19 01:03:55;;;;;;;14.77;4.35;;;;;;;;;;526139;28;1452;-82
2022/06/19 01:04:23;;;;;;;14.30;4.43;;;;;;;;;;525603;28;888;-82
2022/06/19 01:04:45;;;;;;;14.23;4.22;;;;;;;;;;525954;28;1489;-82
2022/06/19 01:05:01;;;;;;;14.27;4.43;;;;;;;;;;526329;28;1619;-82
2022/06/19 01:05:17;;;;;;;16.45;4.57;;;;;;;;;;526328;28;899;-82
2022/06/19 01:05:35;;;;;;;14.82;4.28;;;;;;;;;;526671;28;1097;-82
2022/06/19 01:05:52;;;;;;;14.90;4.40;;;;;;;;;;528215;28;1256;-82
2022/06/19 01:06:09;;;;;;;14.90;4.20;;;;;;;;;;528321;28;1267;-82
2022/06/19 01:06:27;;;;;;;14.25;4.20;;;;;;;;;;528452;28;827;-82
2022/06/19 01:06:42;;;;;;;13.40;4.22;;;;;;;;;;528764;27;1494;-82
2022/06/19 01:06:58;;;;;;;14.00;4.00;;;;;;;;;;530366;27;856;-82
2022/06/19 01:07:13;;;;;;;15.80;4.20;;;;;;;;;;530539;27;819;-82
2022/06/19 01:07:29;;;;;;;15.60;4.15;;;;;;;;;;528452;28;1242;-82
2022/06/19 01:07:46;;;;;;;14.27;4.07;;;;;;;;;;524305;28;1373;-82
2022/06/19 01:08:02;;;;;;;13.40;4.03;;;;;;;;;;524492;28;1402;-82
2022/06/19 01:08:17;;;;;;;14.43;4.00;;;;;;;;;;524788;28;1205;-82
2022/06/19 01:08:33;;;;;;;14.90;4.00;;;;;;;;;;524177;28;1309;-82
2022/06/19 01:08:49;;;;;;;14.00;4.00;;;;;;;;;;522287;28;1565;-82
2022/06/19 01:09:05;;;;;;;13.27;3.95;;;;;;;;;;520133;28;1400;-82
2022/06/19 01:09:20;;;;;;;12.30;3.87;;;;;;;;;;520150;28;860;-82
2022/06/19 01:09:36;;;;;;;11.75;3.88;;;;;;;;;;520719;28;1326;-82
2022/06/19 01:09:51;;;;;;;14.03;4.10;;;;;;;;;;520114;28;1025;-82
2022/06/19 01:10:09;;;;;;;15.40;4.18;;;;;;;;;;518177;28;1449;-82
2022/06/19 01:10:24;;;;;;;13.38;4.15;;;;;;;;;;521964;28;1259;-82
2022/06/19 01:10:44;;;;;;;12.95;4.00;;;;;;;;;;524949;28;989;-82
2022/06/19 01:11:02;;;;;;;16.00;4.25;;;;;;;;;;523168;28;1348;-82
2022/06/19 01:11:19;;;;;;;14.32;4.30;;;;;;;;;;523850;28;1439;-82
2022/06/19 01:11:40;;;;;;;14.17;4.20;;;;;;;;;;525349;28;1238;-82
2022/06/19 01:11:56;;;;;;;14.75;3.85;;;;;;;;;;523894;28;1405;-82
2022/06/19 01:12:11;;;;;;;12.87;3.57;;;;;;;;;;521864;28;1132;-82
2022/06/19 01:12:28;;;;;;;12.10;3.65;;;;;;;;;;521351;28;1394;-82
2022/06/19 01:12:48;;;;;;;13.15;3.95;;;;;;;;;;522023;28;1406;-82
2022/06/19 01:13:04;;;;;;;14.48;4.07;;;;;;;;;;522030;28;1572;-82
2022/06/19 01:13:25;;;;;;;12.90;3.87;;;;;;;;;;523317;28;1191;-82
2022/06/19 01:13:41;;;;;;;14.15;4.22;;;;;;;;;;524152;28;1574;-82
2022/06/19 01:13:57;;;;;;;17.48;4.07;;;;;;;;;;522094;28;1418;-82
2022/06/19 01:14:18;;;;;;;17.15;3.80;;;;;;;;;;521932;28;1529;-82
2022/06/19 01:14:35;;;;;;;17.55;4.15;;;;;;;;;;522161;28;946;-83
2022/06/19 01:14:58;;;;;;;16.77;4.03;;;;;;;;;;523389;28;1475;-83
2022/06/19 01:15:17;;;;;;;14.68;3.60;;;;;;;;;;524048;28;1297;-83
2022/06/19 01:15:32;;;;;;;15.27;3.85;;;;;;;;;;524134;28;891;-83
2022/06/19 01:15:49;;;;;;;15.13;4.00;;;;;;;;;;524839;28;1564;-83
2022/06/19 01:16:05;;;;;;;13.63;4.00;;;;;;;;;;523997;28;1451;-82
2022/06/19 01:16:20;;;;;;;14.05;4.05;;;;;;;;;;523983;28;1331;-82
2022/06/19 01:16:37;;;;;;;15.20;4.00;;;;;;;;;;524935;28;1523;-82
2022/06/19 01:16:52;;;;;;;13.02;3.80;;;;;;;;;;522131;28;1254;-82
2022/06/19 01:17:10;;;;;;;11.02;3.65;;;;;;;;;;523916;28;1378;-82
2022/06/19 01:17:28;;;;;;;13.90;3.92;;;;;;;;;;522049;28;1345;-82
2022/06/19 01:17:46;;;;;;;16.08;3.97;;;;;;;;;;521999;28;1274;-82
2022/06/19 01:18:04;;;;;;;15.55;3.85;;;;;;;;;;522063;28;1362;-82
2022/06/19 01:18:21;;;;;;;15.35;3.97;;;;;;;;;;521992;28;1198;-82
2022/06/19 01:18:39;;;;;;;14.98;4.05;;;;;;;;;;520486;28;1505;-82
2022/06/19 01:18:54;;;;;;;13.25;3.70;;;;;;;;;;524304;28;997;-82
2022/06/19 01:19:16;;;;;;;11.33;3.90;;;;;;;;;;519892;28;1496;-82
2022/06/19 01:19:36;;;;;;;16.42;4.10;;;;;;;;;;519945;28;1329;-82
2022/06/19 01:19:52;;;;;;;18.45;4.03;;;;;;;;;;522565;28;1243;-82
2022/06/19 01:20:11;;;;;;;16.20;4.10;;;;;;;;;;524285;28;1188;-82
2022/06/19 01:20:27;;;;;;;13.43;4.05;;;;;;;;;;526194;28;1324;-82
2022/06/19 01:20:43;;;;;;;15.25;4.10;;;;;;;;;;524048;28;1237;-82
2022/06/19 01:21:25;;;;;;;15.75;3.97;;;;;;;;;;523976;28;1058;-82
2022/06/19 01:21:57;;;;;;;16.83;4.25;;;;;;;;;;521535;28;1162;-82
2022/06/19 01:22:48;;;;;;;14.98;4.18;;;;;;;;;;526125;28;1391;-82
2022/06/19 01:23:19;;;;;;;16.55;4.30;;;;;;;;;;525052;28;1083;-82
2022/06/19 01:23:50;;;;;;;16.50;3.88;;;;;;;;;;527243;28;888;-82
2022/06/19 01:24:36;;;;;;;10.68;4.10;;;;;;;;;;526283;28;1588;-82
2022/06/19 01:25:08;;;;;;;14.52;3.70;;;;;;;;;;525858;28;1183;-82
2022/06/19 01:25:35;;;;;;;15.27;4.10;;;;;;;;;;522463;28;1223;-82
2022/06/19 01:25:52;;;;;;;17.23;4.20;;;;;;;;;;524382;28;1492;-82
2022/06/19 01:26:11;;;;;;;17.02;4.15;;;;;;;;;;525023;28;1394;-82
2022/06/19 01:26:32;;;;;;;13.70;4.15;;;;;;;;;;523998;28;1278;-82
2022/06/19 01:26:52;;;;;;;12.85;4.15;;;;;;;;;;524156;28;954;-82
2022/06/19 01:28:45;;;;;;;12.93;3.90;;;;;;;;;;522122;28;888;-82
2022/06/19 01:28:54;;;;;;;16.52;4.15;;;;;;;;;;528610;27;1370;-82
2022/06/19 01:29:10;;;;;;;12.55;4.10;;;;;;;;;;530153;27;1521;-82
2022/06/19 01:29:28;;;;;;;14.88;4.20;;;;;;;;;;530484;27;1101;-82
2022/06/19 01:29:44;;;;;;;16.63;4.28;;;;;;;;;;530528;27;923;-82
2022/06/19 01:30:01;;;;;;;14.03;4.13;;;;;;;;;;530170;27;1437;-82
2022/06/19 01:30:16;;;;;;;11.82;4.07;;;;;;;;;;526123;28;1242;-82
2022/06/19 01:30:33;;;;;;;12.93;3.95;;;;;;;;;;524016;28;1341;-82
2022/06/19 01:30:50;;;;;;;14.13;4.00;;;;;;;;;;521954;28;1517;-82
2022/06/19 01:31:07;;;;;;;14.55;4.00;;;;;;;;;;523295;28;1400;-82
2022/06/19 01:31:27;;;;;;;13.32;3.92;;;;;;;;;;525482;28;895;-82
2022/06/19 01:31:51;;;;;;;13.70;3.88;;;;;;;;;;526006;28;1250;-82
2022/06/19 01:32:07;;;;;;;15.10;3.97;;;;;;;;;;521718;28;880;-82
2022/06/19 01:32:23;;;;;;;13.30;3.92;;;;;;;;;;525886;28;1240;-82
2022/06/19 01:32:39;;;;;;;14.13;3.97;;;;;;;;;;526225;28;1278;-82
2022/06/19 01:32:57;;;;;;;15.65;4.40;;;;;;;;;;522187;28;860;-82
2022/06/19 01:33:18;;;;;;;15.48;4.68;;;;;;;;;;520017;28;1254;-82
2022/06/19 01:33:47;;;;;;;13.88;4.30;;;;;;;;;;522086;28;848;-82
2022/06/19 01:34:26;;;;;;;15.48;4.30;;;;;;;;;;521035;28;1524;-82
2022/06/19 01:34:43;;;;;;;14.85;4.10;;;;;;;;;;525053;28;1364;-82
2022/06/19 01:35:00;;;;;;;16.52;4.18;;;;;;;;;;524032;28;1291;-82
2022/06/19 01:35:18;;;;;;;17.60;4.03;;;;;;;;;;524049;28;1315;-82
2022/06/19 01:35:36;;;;;;;13.95;3.90;;;;;;;;;;521910;28;1354;-82
2022/06/19 01:35:53;;;;;;;12.20;4.00;;;;;;;;;;522032;28;1336;-82
2022/06/19 01:36:12;;;;;;;15.90;4.20;;;;;;;;;;519879;28;1385;-82
2022/06/19 01:36:30;;;;;;;16.15;4.50;;;;;;;;;;521586;28;1319;-82
2022/06/19 01:36:46;;;;;;;15.48;4.25;;;;;;;;;;523761;28;1367;-82
2022/06/19 01:37:17;;;;;;;15.18;3.92;;;;;;;;;;520275;28;1377;-82
2022/06/19 01:37:35;;;;;;;18.73;4.63;;;;;;;;;;519631;28;1337;-82
2022/06/19 01:37:51;;;;;;;19.70;4.70;;;;;;;;;;521539;28;1485;-82
2022/06/19 01:38:14;;;;;;;18.17;4.70;;;;;;;;;;523543;28;812;-82
2022/06/19 01:38:32;;;;;;;14.30;4.25;;;;;;;;;;519836;28;920;-82
2022/06/19 01:38:51;;;;;;;16.45;4.28;;;;;;;;;;520046;28;1253;-82
2022/06/19 01:39:06;;;;;;;17.73;4.40;;;;;;;;;;523246;28;1015;-82
2022/06/19 01:39:23;;;;;;;17.47;4.50;;;;;;;;;;522305;28;1167;-82
2022/06/19 01:39:45;;;;;;;14.88;4.35;;;;;;;;;;521881;28;1334;-82
2022/06/19 01:40:11;;;;;;;13.13;4.20;;;;;;;;;;522123;28;1066;-82
2022/06/19 01:40:31;;;;;;;12.97;3.73;;;;;;;;;;523700;28;872;-82
2022/06/19 01:40:54;;;;;;;14.02;4.13;;;;;;;;;;523704;28;1473;-82
2022/06/19 01:41:18;;;;;;;19.00;4.57;;;;;;;;;;521426;28;1477;-82
2022/06/19 01:41:33;;;;;;;17.35;4.28;;;;;;;;;;523011;28;1392;-82
2022/06/19 01:41:49;;;;;;;16.77;4.43;;;;;;;;;;524858;28;1467;-82
2022/06/19 01:42:05;;;;;;;17.48;4.60;;;;;;;;;;524193;28;1062;-82
2022/06/19 01:42:21;;;;;;;18.27;4.25;;;;;;;;;;523675;28;1279;-82
2022/06/19 01:42:37;;;;;;;15.95;4.10;;;;;;;;;;522627;28;849;-82
2022/06/19 01:42:54;;;;;;;15.70;4.20;;;;;;;;;;524104;28;1187;-82
2022/06/19 01:43:10;;;;;;;15.77;4.20;;;;;;;;;;523850;28;1418;-82
2022/06/19 01:43:26;;;;;;;14.35;3.88;;;;;;;;;;521991;28;1362;-82
2022/06/19 01:43:42;;;;;;;14.88;4.00;;;;;;;;;;519897;28;1254;-82
2022/06/19 01:43:58;;;;;;;16.23;4.10;;;;;;;;;;523652;28;833;-82
2022/06/19 01:44:13;;;;;;;16.40;4.03;;;;;;;;;;523404;28;1392;-82
2022/06/19 01:44:30;;;;;;;14.40;4.07;;;;;;;;;;521352;28;1914;-82
2022/06/19 01:44:47;;;;;;;15.32;4.07;;;;;;;;;;521158;28;1002;-82
2022/06/19 01:45:04;;;;;;;16.17;4.40;;;;;;;;;;521098;28;1451;-82
2022/06/19 01:45:20;;;;;;;13.93;4.32;;;;;;;;;;522988;28;1165;-82
2022/06/19 01:45:41;;;;;;;13.25;4.00;;;;;;;;;;524100;28;833;-82
2022/06/19 01:45:57;;;;;;;13.35;3.83;;;;;;;;;;522364;28;1544;-82
2022/06/19 01:46:15;;;;;;;15.43;3.88;;;;;;;;;;522767;28;1325;-82
2022/06/19 01:46:30;;;;;;;17.77;4.28;;;;;;;;;;525071;28;1538;-82
2022/06/19 01:46:46;;;;;;;15.65;4.20;;;;;;;;;;521945;28;1513;-82
2022/06/19 01:47:03;;;;;;;16.40;3.90;;;;;;;;;;522166;28;1279;-82
2022/06/19 01:47:20;;;;;;;16.88;3.90;;;;;;;;;;521803;28;1501;-82
2022/06/19 01:47:36;;;;;;;16.90;3.85;;;;;;;;;;519673;28;1243;-82
2022/06/19 01:47:52;;;;;;;17.33;3.83;;;;;;;;;;523098;28;1358;-82
2022/06/19 01:48:07;;;;;;;16.40;3.83;;;;;;;;;;523804;28;1290;-82
2022/06/19 01:48:28;;;;;;;13.73;4.03;;;;;;;;;;521587;28;1322;-82
2022/06/19 01:48:45;;;;;;;13.50;4.00;;;;;;;;;;523809;28;1425;-82
2022/06/19 01:49:02;;;;;;;14.10;4.20;;;;;;;;;;523931;28;1400;-82
2022/06/19 01:49:17;;;;;;;16.83;4.32;;;;;;;;;;523863;28;1368;-82
2022/06/19 01:49:35;;;;;;;16.95;4.22;;;;;;;;;;524049;28;919;-82
2022/06/19 01:49:53;;;;;;;15.38;4.13;;;;;;;;;;525828;28;947;-82
2022/06/19 01:50:13;;;;;;;16.30;4.40;;;;;;;;;;523930;28;1098;-82
2022/06/19 01:50:30;;;;;;;12.95;3.97;;;;;;;;;;526084;28;848;-82
2022/06/19 01:50:46;;;;;;;12.90;3.95;;;;;;;;;;524022;28;1339;-82
2022/06/19 01:51:05;;;;;;;13.30;3.88;;;;;;;;;;526475;28;1394;-82